Skiros, Greece
Current Conditions -  °F | °C
As of 11:50 AM on Saturday 22 Nov 2014 (Local Time) from LGSY Reporting Station
Broken Clouds Broken Clouds  
Wind Chill: 52°   Ceiling: 8000
Heat Index: 52°   Visibility: 6mi
Dew Point: 46°   Wind: 2mph
Humidity: 82%   Direction: NA
Pressure: 30.18"   Gusts: NA
Location:  38.9°N, 24.56°E
Report Text: LGSY 220850Z VRB02KT 9999 FEW008 SCT025 BKN080 11/08 Q1022 NOSIG BLU
Loading
Personal Weather Stations






























Interactive Weather Map New forecast layout! Learn more

10-Day Weather Forecast

Advertisements
Track Severe Weather on mobile